RJA168 OEMA-OIIE
Flight info
| Callsign | RJA168 |
|---|---|
| Flight time | 2h 5m |
| Altitude | 37000 |
| Route | MIXUG Q46 GAS B417 HFR A788 KFR/N0465F380 G667 KUA/N0461F370 B417 MAH/N0459F380 W31 EGVAX/N0458F370 G667 SAV |
| Aircraft | B738/M-SDE2E3FGHIRWXY/LB1 |
Departure
| Time | 2026-04-25 10:40 |
|---|---|
| Airport | Prince Mohammad Bin Abdulaziz Airport (OEMA) |
Arrival
| Time | 2026-04-25 12:45 |
|---|---|
| Airport | Imam Khomeini International Airport (OIIE) |
| Time | Latitude | Longitude | Altitude | Speed | Heading |
|---|---|---|---|---|---|
| 2026-04-25 10:39 | 24.43008 | 39.97845 | 12140 ft | 387 kts | 36° |
| 2026-04-25 10:40 | 24.45179 | 39.99626 | 13189 ft | 388 kts | 36° |
| 2026-04-25 10:40 | 24.47345 | 40.01400 | 14090 ft | 394 kts | 36° |
| 2026-04-25 10:40 | 24.49554 | 40.03211 | 14812 ft | 403 kts | 36° |
| 2026-04-25 10:40 | 24.51798 | 40.05049 | 15778 ft | 405 kts | 36° |
| 2026-04-25 10:41 | 24.54084 | 40.06923 | 16552 ft | 412 kts | 36° |
| 2026-04-25 10:41 | 24.56378 | 40.08804 | 17290 ft | 418 kts | 36° |
| 2026-04-25 10:41 | 24.58725 | 40.10731 | 18159 ft | 420 kts | 36° |
| 2026-04-25 10:41 | 24.61061 | 40.12650 | 18834 ft | 427 kts | 35° |
| 2026-04-25 10:42 | 24.63464 | 40.14623 | 19573 ft | 431 kts | 35° |
| 2026-04-25 10:42 | 24.65861 | 40.16592 | 20352 ft | 434 kts | 35° |
| 2026-04-25 10:42 | 24.68288 | 40.18588 | 20964 ft | 440 kts | 35° |
| 2026-04-25 10:42 | 24.70778 | 40.20635 | 21680 ft | 443 kts | 34° |
| 2026-04-25 10:43 | 24.73240 | 40.22659 | 22351 ft | 446 kts | 34° |
| 2026-04-25 10:43 | 24.75745 | 40.24719 | 22924 ft | 451 kts | 34° |
| 2026-04-25 10:43 | 24.78265 | 40.26797 | 23452 ft | 456 kts | 34° |
| 2026-04-25 10:43 | 24.80810 | 40.28895 | 23946 ft | 462 kts | 33° |
| 2026-04-25 10:44 | 24.83417 | 40.31045 | 24466 ft | 466 kts | 33° |
| 2026-04-25 10:44 | 24.86005 | 40.33181 | 24928 ft | 471 kts | 33° |
| 2026-04-25 10:44 | 24.88627 | 40.35345 | 25391 ft | 475 kts | 32° |
| 2026-04-25 10:44 | 24.91300 | 40.37554 | 25862 ft | 479 kts | 32° |
| 2026-04-25 10:45 | 24.93962 | 40.39755 | 26287 ft | 483 kts | 31° |
| 2026-04-25 10:45 | 24.96659 | 40.41984 | 26717 ft | 486 kts | 31° |
| 2026-04-25 10:45 | 24.99362 | 40.44221 | 27160 ft | 489 kts | 31° |
| 2026-04-25 10:45 | 25.02098 | 40.46485 | 27588 ft | 492 kts | 30° |
| 2026-04-25 10:46 | 25.04868 | 40.48779 | 28031 ft | 495 kts | 30° |
| 2026-04-25 10:46 | 25.07603 | 40.51046 | 28479 ft | 496 kts | 30° |
| 2026-04-25 10:46 | 25.10353 | 40.53328 | 29069 ft | 493 kts | 29° |
| 2026-04-25 10:46 | 25.13113 | 40.55618 | 29607 ft | 491 kts | 29° |
| 2026-04-25 10:47 | 25.15824 | 40.57863 | 29926 ft | 493 kts | 29° |
| 2026-04-25 10:47 | 25.18572 | 40.60147 | 30318 ft | 494 kts | 29° |
| 2026-04-25 10:47 | 25.21348 | 40.62456 | 30835 ft | 492 kts | 28° |
| 2026-04-25 10:47 | 25.24079 | 40.64727 | 31208 ft | 492 kts | 28° |
| 2026-04-25 10:48 | 25.26781 | 40.66973 | 31480 ft | 494 kts | 28° |
| 2026-04-25 10:48 | 25.29540 | 40.69271 | 31796 ft | 494 kts | 28° |
| 2026-04-25 10:48 | 25.32296 | 40.71571 | 32155 ft | 492 kts | 28° |
| 2026-04-25 10:48 | 25.34949 | 40.73974 | 32369 ft | 505 kts | 38° |
| 2026-04-25 10:49 | 25.37132 | 40.77148 | 32520 ft | 522 kts | 55° |
| 2026-04-25 10:49 | 25.38603 | 40.80857 | 32937 ft | 526 kts | 65° |
| 2026-04-25 10:49 | 25.39914 | 40.84578 | 33465 ft | 521 kts | 64° |
| 2026-04-25 10:49 | 25.41262 | 40.88294 | 33834 ft | 521 kts | 64° |
| 2026-04-25 10:50 | 25.42620 | 40.92003 | 34196 ft | 520 kts | 64° |
| 2026-04-25 10:50 | 25.43962 | 40.95663 | 34644 ft | 517 kts | 64° |
| 2026-04-25 10:50 | 25.45320 | 40.99368 | 35076 ft | 515 kts | 64° |
| 2026-04-25 10:50 | 25.46664 | 41.03034 | 35460 ft | 514 kts | 64° |
| 2026-04-25 10:51 | 25.47996 | 41.06674 | 35757 ft | 514 kts | 64° |
| 2026-04-25 10:51 | 25.49343 | 41.10358 | 36064 ft | 513 kts | 64° |
| 2026-04-25 10:51 | 25.50683 | 41.14024 | 36395 ft | 512 kts | 64° |
| 2026-04-25 10:51 | 25.52025 | 41.17703 | 36696 ft | 512 kts | 64° |
| 2026-04-25 10:52 | 25.53363 | 41.21371 | 36935 ft | 512 kts | 64° |
| 2026-04-25 10:52 | 25.54700 | 41.25042 | 37224 ft | 512 kts | 64° |
| 2026-04-25 10:52 | 25.56022 | 41.28672 | 37530 ft | 510 kts | 64° |
| 2026-04-25 10:52 | 25.57364 | 41.32362 | 37762 ft | 511 kts | 64° |
| 2026-04-25 10:53 | 25.58693 | 41.36017 | 37952 ft | 512 kts | 64° |
| 2026-04-25 10:53 | 25.61378 | 41.43414 | 38026 ft | 521 kts | 64° |
| 2026-04-25 10:54 | 25.64118 | 41.50980 | 38020 ft | 532 kts | 64° |
| 2026-04-25 10:54 | 25.66899 | 41.58675 | 38034 ft | 542 kts | 64° |
| 2026-04-25 10:55 | 25.69719 | 41.66489 | 38014 ft | 550 kts | 65° |
| 2026-04-25 10:55 | 25.72540 | 41.74327 | 38010 ft | 550 kts | 65° |
| 2026-04-25 10:56 | 25.75368 | 41.82192 | 37987 ft | 547 kts | 65° |
| 2026-04-25 10:56 | 25.78192 | 41.90067 | 38007 ft | 549 kts | 65° |
| 2026-04-25 10:57 | 25.81005 | 41.97924 | 38004 ft | 549 kts | 65° |
| 2026-04-25 10:57 | 25.83813 | 42.05780 | 38005 ft | 550 kts | 65° |
| 2026-04-25 10:58 | 25.86646 | 42.13725 | 38064 ft | 551 kts | 65° |
| 2026-04-25 10:58 | 25.89445 | 42.21590 | 38011 ft | 551 kts | 65° |
| 2026-04-25 10:59 | 25.92270 | 42.29542 | 38014 ft | 553 kts | 65° |
| 2026-04-25 10:59 | 25.95073 | 42.37450 | 38002 ft | 552 kts | 65° |
| 2026-04-25 11:00 | 25.97897 | 42.45434 | 38018 ft | 552 kts | 65° |
| 2026-04-25 11:00 | 26.00708 | 42.53394 | 38012 ft | 554 kts | 65° |
| 2026-04-25 11:01 | 26.03510 | 42.61350 | 38009 ft | 554 kts | 65° |
| 2026-04-25 11:01 | 26.06321 | 42.69341 | 37973 ft | 555 kts | 65° |
| 2026-04-25 11:02 | 26.09103 | 42.77273 | 37990 ft | 555 kts | 65° |
| 2026-04-25 11:02 | 26.11914 | 42.85300 | 37994 ft | 557 kts | 65° |
| 2026-04-25 11:03 | 26.14730 | 42.93357 | 37990 ft | 557 kts | 65° |
| 2026-04-25 11:03 | 26.17516 | 43.01346 | 38007 ft | 558 kts | 65° |
| 2026-04-25 11:04 | 26.19509 | 43.09682 | 37973 ft | 561 kts | 80° |
| 2026-04-25 11:04 | 26.20791 | 43.18250 | 37991 ft | 563 kts | 79° |
| 2026-04-25 11:05 | 26.22105 | 43.26854 | 38018 ft | 562 kts | 79° |
| 2026-04-25 11:05 | 26.23409 | 43.35415 | 37969 ft | 562 kts | 79° |
| 2026-04-25 11:06 | 26.24711 | 43.43995 | 38051 ft | 563 kts | 78° |
| 2026-04-25 11:06 | 26.26012 | 43.52606 | 38075 ft | 562 kts | 78° |
| 2026-04-25 11:07 | 26.27300 | 43.61162 | 38063 ft | 563 kts | 78° |
| 2026-04-25 11:07 | 26.28593 | 43.69790 | 38033 ft | 562 kts | 79° |
| 2026-04-25 11:08 | 26.30688 | 43.78031 | 38044 ft | 547 kts | 54° |
| 2026-04-25 11:08 | 26.32831 | 43.81460 | 38068 ft | 534 kts | 39° |
| 2026-04-25 11:08 | 26.35462 | 43.84374 | 38087 ft | 531 kts | 36° |
| 2026-04-25 11:09 | 26.40714 | 43.90229 | 38055 ft | 531 kts | 37° |
| 2026-04-25 11:09 | 26.45914 | 43.96093 | 38049 ft | 530 kts | 37° |
| 2026-04-25 11:10 | 26.51084 | 44.01931 | 37982 ft | 530 kts | 37° |
| 2026-04-25 11:10 | 26.56251 | 44.07778 | 38028 ft | 531 kts | 37° |
| 2026-04-25 11:11 | 26.61447 | 44.13666 | 38014 ft | 532 kts | 37° |
| 2026-04-25 11:11 | 26.66678 | 44.19601 | 38247 ft | 532 kts | 37° |
| 2026-04-25 11:11 | 26.69265 | 44.22539 | 38470 ft | 532 kts | 37° |
| 2026-04-25 11:12 | 26.71866 | 44.25494 | 38620 ft | 532 kts | 37° |
| 2026-04-25 11:12 | 26.74456 | 44.28439 | 38772 ft | 532 kts | 37° |
| 2026-04-25 11:12 | 26.77079 | 44.31427 | 38930 ft | 531 kts | 37° |
| 2026-04-25 11:13 | 26.82233 | 44.37297 | 38979 ft | 530 kts | 37° |
| 2026-04-25 11:13 | 26.87452 | 44.43250 | 38972 ft | 530 kts | 37° |
| 2026-04-25 11:14 | 26.92683 | 44.49224 | 38973 ft | 530 kts | 37° |
| 2026-04-25 11:14 | 26.97891 | 44.55182 | 38976 ft | 530 kts | 37° |
| 2026-04-25 11:15 | 27.03076 | 44.61126 | 38974 ft | 531 kts | 37° |
| 2026-04-25 11:15 | 27.08235 | 44.67046 | 38948 ft | 531 kts | 37° |
| 2026-04-25 11:16 | 27.16038 | 44.76021 | 38957 ft | 530 kts | 37° |
| 2026-04-25 11:16 | 27.21177 | 44.81944 | 38953 ft | 530 kts | 37° |
| 2026-04-25 11:17 | 27.26342 | 44.87904 | 38957 ft | 530 kts | 37° |
| 2026-04-25 11:17 | 27.31513 | 44.93878 | 38960 ft | 529 kts | 37° |
| 2026-04-25 11:18 | 27.36655 | 44.99829 | 38960 ft | 529 kts | 37° |
| 2026-04-25 11:18 | 27.41788 | 45.05777 | 38959 ft | 528 kts | 37° |
| 2026-04-25 11:19 | 27.46919 | 45.11729 | 38958 ft | 528 kts | 37° |
| 2026-04-25 11:19 | 27.52089 | 45.17739 | 38958 ft | 528 kts | 37° |
| 2026-04-25 11:20 | 27.57203 | 45.23622 | 38954 ft | 523 kts | 33° |
| 2026-04-25 11:20 | 27.62594 | 45.29133 | 38956 ft | 523 kts | 34° |
| 2026-04-25 11:21 | 27.67965 | 45.34686 | 38952 ft | 523 kts | 34° |
| 2026-04-25 11:21 | 27.73329 | 45.40246 | 38949 ft | 523 kts | 34° |
| 2026-04-25 11:22 | 27.77811 | 45.44898 | 38963 ft | 522 kts | 34° |
| 2026-04-25 11:22 | 27.84078 | 45.51410 | 38999 ft | 523 kts | 34° |
| 2026-04-25 11:23 | 27.89410 | 45.57065 | 38946 ft | 526 kts | 38° |
| 2026-04-25 11:23 | 27.94487 | 45.63079 | 38970 ft | 526 kts | 38° |
| 2026-04-25 11:24 | 27.99567 | 45.69044 | 38949 ft | 526 kts | 38° |
| 2026-04-25 11:24 | 28.04643 | 45.75010 | 38958 ft | 527 kts | 38° |
| 2026-04-25 11:25 | 28.09712 | 45.80976 | 38972 ft | 527 kts | 39° |
| 2026-04-25 11:25 | 28.14824 | 45.87000 | 38989 ft | 526 kts | 39° |
| 2026-04-25 11:26 | 28.19915 | 45.93008 | 38992 ft | 526 kts | 39° |
| 2026-04-25 11:26 | 28.24990 | 45.99007 | 38992 ft | 527 kts | 39° |
| 2026-04-25 11:27 | 28.30057 | 46.05006 | 38995 ft | 526 kts | 39° |
| 2026-04-25 11:27 | 28.34155 | 46.10117 | 38962 ft | 534 kts | 50° |
| 2026-04-25 11:28 | 28.36351 | 46.15225 | 39024 ft | 546 kts | 71° |
| 2026-04-25 11:28 | 28.37047 | 46.19494 | 39034 ft | 550 kts | 83° |
| 2026-04-25 11:28 | 28.38102 | 46.28112 | 39007 ft | 553 kts | 79° |
| 2026-04-25 11:29 | 28.39321 | 46.36692 | 38938 ft | 550 kts | 79° |
| 2026-04-25 11:29 | 28.40545 | 46.45276 | 39002 ft | 551 kts | 79° |
| 2026-04-25 11:30 | 28.41758 | 46.53818 | 38997 ft | 551 kts | 79° |
| 2026-04-25 11:30 | 28.42974 | 46.62419 | 38987 ft | 550 kts | 79° |
| 2026-04-25 11:31 | 28.44180 | 46.70992 | 38959 ft | 551 kts | 79° |
| 2026-04-25 11:31 | 28.45383 | 46.79584 | 38954 ft | 551 kts | 79° |
| 2026-04-25 11:32 | 28.46578 | 46.88157 | 38952 ft | 551 kts | 79° |
| 2026-04-25 11:32 | 28.47830 | 46.96802 | 38952 ft | 550 kts | 75° |
| 2026-04-25 11:33 | 28.50455 | 47.04871 | 39029 ft | 533 kts | 49° |
| 2026-04-25 11:33 | 28.52839 | 47.08027 | 39014 ft | 518 kts | 33° |
| 2026-04-25 11:33 | 28.55568 | 47.10703 | 38976 ft | 523 kts | 36° |
| 2026-04-25 11:34 | 28.60643 | 47.16676 | 38969 ft | 526 kts | 39° |
| 2026-04-25 11:34 | 28.65644 | 47.22741 | 38974 ft | 523 kts | 39° |
| 2026-04-25 11:35 | 28.70596 | 47.28765 | 38974 ft | 523 kts | 40° |
| 2026-04-25 11:35 | 28.75582 | 47.34840 | 38975 ft | 523 kts | 40° |
| 2026-04-25 11:36 | 28.80551 | 47.40905 | 38973 ft | 522 kts | 40° |
| 2026-04-25 11:36 | 28.85512 | 47.46968 | 39030 ft | 522 kts | 40° |
| 2026-04-25 11:37 | 28.90450 | 47.53012 | 38970 ft | 520 kts | 40° |
| 2026-04-25 11:37 | 28.95392 | 47.59070 | 38973 ft | 520 kts | 40° |
| 2026-04-25 11:38 | 29.00327 | 47.65130 | 38977 ft | 520 kts | 41° |
| 2026-04-25 11:38 | 29.05263 | 47.71199 | 38963 ft | 520 kts | 41° |
| 2026-04-25 11:39 | 29.10177 | 47.77249 | 38962 ft | 520 kts | 41° |
| 2026-04-25 11:39 | 29.15113 | 47.83336 | 38963 ft | 519 kts | 41° |
| 2026-04-25 11:40 | 29.20018 | 47.89396 | 38965 ft | 519 kts | 41° |
| 2026-04-25 11:40 | 29.24592 | 47.95787 | 38968 ft | 528 kts | 59° |
| 2026-04-25 11:41 | 29.25964 | 47.99727 | 38972 ft | 536 kts | 74° |
| 2026-04-25 11:41 | 29.26724 | 48.03872 | 38987 ft | 539 kts | 76° |
| 2026-04-25 11:41 | 29.28377 | 48.12214 | 38966 ft | 536 kts | 75° |
| 2026-04-25 11:42 | 29.30078 | 48.20528 | 38970 ft | 536 kts | 75° |
| 2026-04-25 11:42 | 29.31775 | 48.28834 | 38975 ft | 537 kts | 75° |
| 2026-04-25 11:43 | 29.33467 | 48.37140 | 38967 ft | 535 kts | 75° |
| 2026-04-25 11:43 | 29.35147 | 48.45426 | 38966 ft | 536 kts | 75° |
| 2026-04-25 11:44 | 29.36822 | 48.53724 | 38947 ft | 536 kts | 75° |
| 2026-04-25 11:44 | 29.38498 | 48.62057 | 38959 ft | 535 kts | 76° |
| 2026-04-25 11:45 | 29.40165 | 48.70370 | 38942 ft | 535 kts | 76° |
| 2026-04-25 11:45 | 29.41826 | 48.78683 | 38954 ft | 535 kts | 76° |
| 2026-04-25 11:46 | 29.43481 | 48.86982 | 38943 ft | 535 kts | 76° |
| 2026-04-25 11:46 | 29.45569 | 48.95166 | 38986 ft | 531 kts | 58° |
| 2026-04-25 11:47 | 29.47629 | 48.98612 | 38989 ft | 521 kts | 42° |
| 2026-04-25 11:47 | 29.50322 | 49.01321 | 38993 ft | 512 kts | 29° |
| 2026-04-25 11:47 | 29.53352 | 49.03343 | 38961 ft | 497 kts | 13° |
| 2026-04-25 11:47 | 29.56642 | 49.04346 | 38995 ft | 479 kts | 357° |
| 2026-04-25 11:48 | 29.63244 | 49.04882 | 39010 ft | 478 kts | 356° |
| 2026-04-25 11:48 | 29.69875 | 49.05576 | 38952 ft | 477 kts | 356° |
| 2026-04-25 11:49 | 29.76501 | 49.06290 | 38948 ft | 478 kts | 356° |
| 2026-04-25 11:49 | 29.83144 | 49.07011 | 38948 ft | 479 kts | 356° |
| 2026-04-25 11:50 | 29.89803 | 49.07734 | 38949 ft | 480 kts | 356° |
| 2026-04-25 11:50 | 29.96475 | 49.08460 | 38944 ft | 480 kts | 356° |
| 2026-04-25 11:51 | 30.03099 | 49.09182 | 38977 ft | 480 kts | 356° |
| 2026-04-25 11:51 | 30.09793 | 49.09913 | 38986 ft | 482 kts | 356° |
| 2026-04-25 11:52 | 30.16509 | 49.10647 | 38996 ft | 482 kts | 356° |
| 2026-04-25 11:52 | 30.23162 | 49.11375 | 39015 ft | 483 kts | 356° |
| 2026-04-25 11:53 | 30.29861 | 49.12109 | 39022 ft | 484 kts | 356° |
| 2026-04-25 11:53 | 30.36593 | 49.12847 | 39023 ft | 484 kts | 356° |
| 2026-04-25 11:54 | 30.43333 | 49.13589 | 39022 ft | 484 kts | 356° |
| 2026-04-25 11:55 | 30.53433 | 49.14702 | 39022 ft | 486 kts | 356° |
| 2026-04-25 11:55 | 30.60138 | 49.14899 | 39027 ft | 479 kts | 350° |
| 2026-04-25 11:56 | 30.66854 | 49.14798 | 39020 ft | 480 kts | 350° |
| 2026-04-25 11:56 | 30.73521 | 49.14709 | 39022 ft | 481 kts | 350° |
| 2026-04-25 11:57 | 30.80231 | 49.14620 | 39046 ft | 483 kts | 350° |
| 2026-04-25 11:57 | 30.86967 | 49.14532 | 39017 ft | 482 kts | 350° |
| 2026-04-25 11:58 | 30.93699 | 49.14442 | 39014 ft | 483 kts | 350° |
| 2026-04-25 11:58 | 31.00425 | 49.14354 | 38998 ft | 484 kts | 350° |
| 2026-04-25 11:59 | 31.07206 | 49.14264 | 38971 ft | 484 kts | 350° |
| 2026-04-25 11:59 | 31.13972 | 49.14173 | 38966 ft | 484 kts | 350° |
| 2026-04-25 12:00 | 31.24082 | 49.14039 | 38967 ft | 484 kts | 350° |
| 2026-04-25 12:01 | 31.34192 | 49.13902 | 38967 ft | 483 kts | 351° |
| 2026-04-25 12:01 | 31.40936 | 49.13814 | 38969 ft | 483 kts | 351° |
| 2026-04-25 12:02 | 31.51045 | 49.13678 | 38970 ft | 483 kts | 351° |
| 2026-04-25 12:02 | 31.57772 | 49.13588 | 38974 ft | 483 kts | 351° |
| 2026-04-25 12:03 | 31.64507 | 49.13497 | 38978 ft | 483 kts | 350° |
| 2026-04-25 12:03 | 31.71245 | 49.13408 | 39009 ft | 484 kts | 351° |
| 2026-04-25 12:04 | 31.74677 | 49.13860 | 38970 ft | 498 kts | 7° |
| 2026-04-25 12:04 | 31.77998 | 49.14893 | 39022 ft | 501 kts | 7° |
| 2026-04-25 12:04 | 31.84843 | 49.16916 | 39002 ft | 501 kts | 6° |
| 2026-04-25 12:05 | 31.91603 | 49.18892 | 39009 ft | 500 kts | 6° |
| 2026-04-25 12:05 | 31.98390 | 49.20876 | 39033 ft | 501 kts | 6° |
| 2026-04-25 12:06 | 32.05186 | 49.22864 | 39047 ft | 501 kts | 6° |
| 2026-04-25 12:06 | 32.11957 | 49.24849 | 39019 ft | 501 kts | 6° |
| 2026-04-25 12:07 | 32.18713 | 49.26834 | 39019 ft | 499 kts | 6° |
| 2026-04-25 12:07 | 32.25492 | 49.28825 | 39064 ft | 499 kts | 6° |
| 2026-04-25 12:08 | 32.32283 | 49.30821 | 39102 ft | 501 kts | 6° |
| 2026-04-25 12:08 | 32.39026 | 49.32806 | 39139 ft | 501 kts | 6° |
| 2026-04-25 12:09 | 32.45815 | 49.34809 | 39189 ft | 501 kts | 6° |
| 2026-04-25 12:09 | 32.52556 | 49.36801 | 39220 ft | 501 kts | 6° |
| 2026-04-25 12:10 | 32.59388 | 49.38823 | 39240 ft | 502 kts | 6° |
| 2026-04-25 12:10 | 32.66181 | 49.40834 | 39256 ft | 503 kts | 6° |
| 2026-04-25 12:11 | 32.73000 | 49.42858 | 39297 ft | 503 kts | 6° |
| 2026-04-25 12:11 | 32.79810 | 49.44882 | 39303 ft | 503 kts | 6° |
| 2026-04-25 12:12 | 32.85512 | 49.46579 | 39327 ft | 504 kts | 6° |
| 2026-04-25 12:12 | 32.93463 | 49.48950 | 39352 ft | 505 kts | 6° |
| 2026-04-25 12:13 | 33.00286 | 49.50988 | 39351 ft | 505 kts | 6° |
| 2026-04-25 12:13 | 33.07124 | 49.53032 | 39369 ft | 505 kts | 6° |
| 2026-04-25 12:14 | 33.13969 | 49.55083 | 39425 ft | 504 kts | 6° |
| 2026-04-25 12:14 | 33.20773 | 49.57126 | 39384 ft | 502 kts | 6° |
| 2026-04-25 12:15 | 33.27577 | 49.59172 | 39381 ft | 502 kts | 6° |
| 2026-04-25 12:15 | 33.34386 | 49.61224 | 39379 ft | 502 kts | 6° |
| 2026-04-25 12:16 | 33.41232 | 49.63290 | 39443 ft | 501 kts | 6° |
| 2026-04-25 12:16 | 33.48042 | 49.65349 | 39361 ft | 500 kts | 7° |
| 2026-04-25 12:17 | 33.54805 | 49.67395 | 39323 ft | 500 kts | 7° |
| 2026-04-25 12:17 | 33.61589 | 49.69453 | 39332 ft | 500 kts | 7° |
| 2026-04-25 12:18 | 33.68404 | 49.71523 | 39337 ft | 499 kts | 8° |
| 2026-04-25 12:18 | 33.75131 | 49.73569 | 39353 ft | 498 kts | 8° |
| 2026-04-25 12:19 | 33.85192 | 49.76638 | 39339 ft | 498 kts | 8° |
| 2026-04-25 12:20 | 33.91907 | 49.78689 | 39334 ft | 498 kts | 8° |
| 2026-04-25 12:20 | 33.98677 | 49.80761 | 39323 ft | 497 kts | 8° |
| 2026-04-25 12:21 | 34.05396 | 49.82820 | 38686 ft | 488 kts | 8° |
| 2026-04-25 12:21 | 34.08627 | 49.83814 | 38125 ft | 479 kts | 8° |
| 2026-04-25 12:21 | 34.11877 | 49.84811 | 37550 ft | 471 kts | 8° |
| 2026-04-25 12:21 | 34.14936 | 49.86107 | 37174 ft | 465 kts | 20° |
| 2026-04-25 12:22 | 34.17802 | 49.87760 | 36891 ft | 452 kts | 20° |
| 2026-04-25 12:22 | 34.20599 | 49.89376 | 36497 ft | 442 kts | 20° |
| 2026-04-25 12:22 | 34.23338 | 49.90966 | 36068 ft | 434 kts | 20° |
| 2026-04-25 12:22 | 34.26111 | 49.92575 | 35631 ft | 445 kts | 20° |
| 2026-04-25 12:23 | 34.28957 | 49.94226 | 35178 ft | 468 kts | 21° |
| 2026-04-25 12:23 | 34.31940 | 49.95965 | 34624 ft | 479 kts | 21° |
| 2026-04-25 12:23 | 34.34924 | 49.97711 | 34048 ft | 474 kts | 21° |
| 2026-04-25 12:23 | 34.37853 | 49.99422 | 33510 ft | 465 kts | 21° |
| 2026-04-25 12:24 | 34.40767 | 50.01125 | 32980 ft | 462 kts | 21° |
| 2026-04-25 12:24 | 34.43685 | 50.02830 | 32453 ft | 464 kts | 21° |
| 2026-04-25 12:24 | 34.46612 | 50.04541 | 31923 ft | 466 kts | 21° |
| 2026-04-25 12:24 | 34.49543 | 50.06258 | 31372 ft | 467 kts | 21° |
| 2026-04-25 12:25 | 34.52432 | 50.07951 | 30829 ft | 466 kts | 22° |
| 2026-04-25 12:25 | 34.55387 | 50.09684 | 30270 ft | 465 kts | 22° |
| 2026-04-25 12:25 | 34.58283 | 50.11385 | 29718 ft | 465 kts | 22° |
| 2026-04-25 12:25 | 34.61195 | 50.13095 | 29160 ft | 465 kts | 22° |
| 2026-04-25 12:26 | 34.64130 | 50.14820 | 28597 ft | 465 kts | 22° |
| 2026-04-25 12:26 | 34.67039 | 50.16533 | 28137 ft | 459 kts | 22° |
| 2026-04-25 12:26 | 34.69803 | 50.18163 | 27815 ft | 443 kts | 22° |
| 2026-04-25 12:26 | 34.72539 | 50.19777 | 27426 ft | 431 kts | 22° |
| 2026-04-25 12:27 | 34.75251 | 50.21374 | 27023 ft | 432 kts | 22° |
| 2026-04-25 12:27 | 34.77933 | 50.22957 | 26541 ft | 427 kts | 22° |
| 2026-04-25 12:27 | 34.80572 | 50.24514 | 26046 ft | 420 kts | 22° |
| 2026-04-25 12:27 | 34.83190 | 50.26062 | 25528 ft | 413 kts | 22° |
| 2026-04-25 12:28 | 34.85739 | 50.27570 | 25022 ft | 404 kts | 22° |
| 2026-04-25 12:28 | 34.88258 | 50.29060 | 24552 ft | 395 kts | 22° |
| 2026-04-25 12:28 | 34.90690 | 50.30502 | 24055 ft | 387 kts | 22° |
| 2026-04-25 12:28 | 34.93098 | 50.31929 | 23549 ft | 380 kts | 22° |
| 2026-04-25 12:29 | 34.95441 | 50.33318 | 23068 ft | 373 kts | 22° |
| 2026-04-25 12:29 | 34.97769 | 50.34699 | 22596 ft | 367 kts | 22° |
| 2026-04-25 12:29 | 35.00030 | 50.36068 | 22130 ft | 366 kts | 27° |
| 2026-04-25 12:29 | 35.01962 | 50.38084 | 21663 ft | 369 kts | 49° |
| 2026-04-25 12:30 | 35.03239 | 50.40765 | 21234 ft | 369 kts | 64° |
| 2026-04-25 12:30 | 35.04315 | 50.43592 | 20780 ft | 366 kts | 63° |
| 2026-04-25 12:30 | 35.05386 | 50.46409 | 20321 ft | 362 kts | 63° |
| 2026-04-25 12:30 | 35.06425 | 50.49146 | 19886 ft | 358 kts | 63° |
| 2026-04-25 12:31 | 35.07471 | 50.51904 | 19431 ft | 354 kts | 63° |
| 2026-04-25 12:31 | 35.08488 | 50.54592 | 18986 ft | 352 kts | 63° |
| 2026-04-25 12:31 | 35.09511 | 50.57295 | 18532 ft | 348 kts | 63° |
| 2026-04-25 12:31 | 35.10520 | 50.59964 | 18086 ft | 345 kts | 63° |
| 2026-04-25 12:32 | 35.11529 | 50.62634 | 17629 ft | 342 kts | 64° |
| 2026-04-25 12:32 | 35.12514 | 50.65245 | 17168 ft | 339 kts | 64° |
| 2026-04-25 12:32 | 35.13480 | 50.67825 | 16698 ft | 336 kts | 68° |
| 2026-04-25 12:32 | 35.14144 | 50.70557 | 16246 ft | 335 kts | 74° |
| 2026-04-25 12:33 | 35.14729 | 50.73291 | 15785 ft | 333 kts | 75° |
| 2026-04-25 12:33 | 35.15297 | 50.76016 | 15325 ft | 329 kts | 75° |
| 2026-04-25 12:33 | 35.15856 | 50.78717 | 14866 ft | 327 kts | 75° |
| 2026-04-25 12:33 | 35.16409 | 50.81393 | 14411 ft | 324 kts | 75° |
| 2026-04-25 12:34 | 35.16956 | 50.84048 | 13961 ft | 322 kts | 75° |
| 2026-04-25 12:34 | 35.17495 | 50.86659 | 13514 ft | 319 kts | 75° |
| 2026-04-25 12:34 | 35.18035 | 50.89289 | 13063 ft | 317 kts | 75° |
| 2026-04-25 12:34 | 35.18389 | 50.91009 | 12767 ft | 315 kts | 74° |
| 2026-04-25 12:35 | 35.19097 | 50.94463 | 12179 ft | 313 kts | 74° |
| 2026-04-25 12:35 | 35.19618 | 50.97005 | 12030 ft | 308 kts | 74° |
| 2026-04-25 12:35 | 35.20135 | 50.99527 | 11975 ft | 304 kts | 74° |
| 2026-04-25 12:35 | 35.20652 | 51.02049 | 11657 ft | 304 kts | 74° |
| 2026-04-25 12:36 | 35.21164 | 51.04554 | 11310 ft | 301 kts | 74° |
| 2026-04-25 12:36 | 35.21662 | 51.06998 | 10998 ft | 295 kts | 74° |
| 2026-04-25 12:36 | 35.22156 | 51.09427 | 10679 ft | 290 kts | 74° |
| 2026-04-25 12:36 | 35.22640 | 51.11798 | 10345 ft | 287 kts | 74° |
| 2026-04-25 12:37 | 35.23116 | 51.14138 | 9987 ft | 284 kts | 74° |
| 2026-04-25 12:37 | 35.23588 | 51.16456 | 9635 ft | 282 kts | 74° |
| 2026-04-25 12:37 | 35.24062 | 51.18792 | 9237 ft | 282 kts | 74° |
| 2026-04-25 12:37 | 35.24529 | 51.21096 | 8797 ft | 275 kts | 74° |
| 2026-04-25 12:38 | 35.24976 | 51.23305 | 8425 ft | 265 kts | 74° |
| 2026-04-25 12:38 | 35.25412 | 51.25456 | 8074 ft | 254 kts | 74° |
| 2026-04-25 12:38 | 35.25819 | 51.27473 | 8050 ft | 231 kts | 74° |
| 2026-04-25 12:38 | 35.26183 | 51.29276 | 7990 ft | 213 kts | 74° |
| 2026-04-25 12:39 | 35.26549 | 51.31086 | 7998 ft | 221 kts | 74° |
| 2026-04-25 12:39 | 35.26920 | 51.32922 | 7989 ft | 223 kts | 74° |
| 2026-04-25 12:39 | 35.27292 | 51.34770 | 7984 ft | 223 kts | 74° |
| 2026-04-25 12:39 | 35.27656 | 51.36579 | 7845 ft | 214 kts | 74° |
| 2026-04-25 12:40 | 35.28082 | 51.38322 | 7413 ft | 215 kts | 60° |
| 2026-04-25 12:40 | 35.29121 | 51.39544 | 7017 ft | 207 kts | 23° |
| 2026-04-25 12:40 | 35.30521 | 51.39788 | 6652 ft | 209 kts | 354° |
| 2026-04-25 12:40 | 35.31982 | 51.39599 | 6293 ft | 212 kts | 351° |
| 2026-04-25 12:41 | 35.33441 | 51.39350 | 6002 ft | 207 kts | 350° |
| 2026-04-25 12:41 | 35.34741 | 51.38703 | 5978 ft | 205 kts | 318° |
| 2026-04-25 12:41 | 35.35496 | 51.37220 | 5994 ft | 209 kts | 290° |
| 2026-04-25 12:41 | 35.35999 | 51.35550 | 5985 ft | 210 kts | 289° |
| 2026-04-25 12:42 | 35.36482 | 51.33869 | 5981 ft | 209 kts | 289° |
| 2026-04-25 12:42 | 35.36800 | 51.32744 | 5977 ft | 209 kts | 289° |
| 2026-04-25 12:42 | 35.37429 | 51.30500 | 5980 ft | 208 kts | 289° |
| 2026-04-25 12:42 | 35.37877 | 51.28896 | 5807 ft | 191 kts | 289° |
| 2026-04-25 12:43 | 35.38279 | 51.27459 | 5734 ft | 165 kts | 289° |
| 2026-04-25 12:43 | 35.38626 | 51.26218 | 5544 ft | 161 kts | 289° |
| 2026-04-25 12:43 | 35.39374 | 51.23536 | 4225 ft | 167 kts | 287° |
| 2026-04-25 12:44 | 35.39705 | 51.22299 | 4077 ft | 146 kts | 286° |
| 2026-04-25 12:44 | 35.40088 | 51.21166 | 3934 ft | 146 kts | 298° |
| 2026-04-25 12:44 | 35.40716 | 51.18710 | 3640 ft | 154 kts | 294° |
| 2026-04-25 12:45 | 35.41061 | 51.17452 | 3459 ft | 155 kts | 292° |
| 2026-04-25 12:45 | 35.41420 | 51.16214 | 3283 ft | 153 kts | 291° |
| 2026-04-25 12:45 | 35.41862 | 51.14656 | 3284 ft | 30 kts | 288° |
| 2026-04-25 12:46 | 35.41919 | 51.14449 | 3288 ft | 23 kts | 287° |
| 2026-04-25 12:46 | 35.41926 | 51.14289 | 3289 ft | 14 kts | 265° |
| 2026-04-25 12:46 | 35.41920 | 51.14177 | 3290 ft | 11 kts | 258° |
| 2026-04-25 12:46 | 35.41903 | 51.14077 | 3292 ft | 11 kts | 258° |
| 2026-04-25 12:47 | 35.41885 | 51.13974 | 3294 ft | 14 kts | 255° |
| 2026-04-25 12:47 | 35.41799 | 51.13899 | 3292 ft | 18 kts | 170° |
| 2026-04-25 12:47 | 35.41731 | 51.14030 | 3289 ft | 19 kts | 112° |
| 2026-04-25 12:47 | 35.41682 | 51.14200 | 3287 ft | 22 kts | 108° |
| 2026-04-25 12:48 | 35.41632 | 51.14380 | 3286 ft | 22 kts | 109° |
| 2026-04-25 12:48 | 35.41581 | 51.14562 | 3286 ft | 22 kts | 108° |
| 2026-04-25 12:48 | 35.41530 | 51.14751 | 3282 ft | 23 kts | 109° |
| 2026-04-25 12:48 | 35.41476 | 51.14946 | 3279 ft | 24 kts | 108° |
| 2026-04-25 12:49 | 35.41420 | 51.15145 | 3278 ft | 24 kts | 109° |
| 2026-04-25 12:49 | 35.41373 | 51.15313 | 3278 ft | 17 kts | 109° |
| 2026-04-25 12:49 | 35.41307 | 51.15403 | 3277 ft | 13 kts | 189° |
| 2026-04-25 12:49 | 35.41222 | 51.15371 | 3278 ft | 11 kts | 199° |
| 2026-04-25 12:50 | 35.41152 | 51.15380 | 3278 ft | 9 kts | 152° |
| 2026-04-25 12:50 | 35.41101 | 51.15382 | 3279 ft | 5 kts | 196° |
| 2026-04-25 12:50 | 35.41071 | 51.15372 | 3280 ft | 3 kts | 195° |
| 2026-04-25 12:50 | 35.41069 | 51.15372 | 3280 ft | 0 kts | 195° |